sensor_id;sensor_type;location;lat;lon;timestamp;pressure;altitude;pressure_sealevel;temperature;humidity
78229;BME280;74448;49.082;9.152;2024-03-25T00:02:16;98602.25;;;9.82;59.08
78229;BME280;74448;49.082;9.152;2024-03-25T00:04:42;98597.69;;;9.84;58.88
78229;BME280;74448;49.082;9.152;2024-03-25T00:07:07;98590.44;;;9.77;59.10
78229;BME280;74448;49.082;9.152;2024-03-25T00:09:33;98594.63;;;9.79;58.85
78229;BME280;74448;49.082;9.152;2024-03-25T00:11:58;98591.97;;;9.79;58.71
78229;BME280;74448;49.082;9.152;2024-03-25T00:14:24;98594.19;;;9.74;59.17
78229;BME280;74448;49.082;9.152;2024-03-25T00:16:49;98595.72;;;9.77;58.89
78229;BME280;74448;49.082;9.152;2024-03-25T00:19:15;98587.69;;;9.78;58.80
78229;BME280;74448;49.082;9.152;2024-03-25T00:21:41;98581.81;;;9.75;58.73
78229;BME280;74448;49.082;9.152;2024-03-25T00:24:07;98599.06;;;9.79;58.94
78229;BME280;74448;49.082;9.152;2024-03-25T00:26:33;98581.75;;;9.65;59.31
78229;BME280;74448;49.082;9.152;2024-03-25T00:28:59;98595.28;;;9.71;58.97
78229;BME280;74448;49.082;9.152;2024-03-25T00:31:25;98588.91;;;9.74;58.93
78229;BME280;74448;49.082;9.152;2024-03-25T00:33:50;98588.91;;;9.74;58.74
78229;BME280;74448;49.082;9.152;2024-03-25T00:36:16;98587.22;;;9.73;58.84
78229;BME280;74448;49.082;9.152;2024-03-25T00:38:42;98581.94;;;9.73;58.83
78229;BME280;74448;49.082;9.152;2024-03-25T00:41:09;98585.53;;;9.72;58.78
78229;BME280;74448;49.082;9.152;2024-03-25T00:43:34;98576.94;;;9.70;58.70
78229;BME280;74448;49.082;9.152;2024-03-25T00:46:00;98583.16;;;9.69;58.90
78229;BME280;74448;49.082;9.152;2024-03-25T00:48:26;98579.69;;;9.68;59.15
78229;BME280;74448;49.082;9.152;2024-03-25T00:50:51;98547.53;;;9.54;58.98
78229;BME280;74448;49.082;9.152;2024-03-25T00:53:17;98576.34;;;9.66;58.87
78229;BME280;74448;49.082;9.152;2024-03-25T00:55:44;98574.66;;;9.65;59.10
78229;BME280;74448;49.082;9.152;2024-03-25T00:58:09;98583.31;;;9.67;59.07
78229;BME280;74448;49.082;9.152;2024-03-25T01:00:35;98580.81;;;9.66;58.89
78229;BME280;74448;49.082;9.152;2024-03-25T01:03:01;98580.81;;;9.66;58.83
78229;BME280;74448;49.082;9.152;2024-03-25T01:05:26;98588.00;;;9.64;59.00
78229;BME280;74448;49.082;9.152;2024-03-25T01:07:52;98583.69;;;9.63;59.02
78229;BME280;74448;49.082;9.152;2024-03-25T01:10:18;98581.16;;;9.61;58.84
78229;BME280;74448;49.082;9.152;2024-03-25T01:12:43;98576.84;;;9.60;59.06
78229;BME280;74448;49.082;9.152;2024-03-25T01:15:09;98563.22;;;9.55;59.04
78229;BME280;74448;49.082;9.152;2024-03-25T01:17:37;98572.56;;;9.59;58.92
78229;BME280;74448;49.082;9.152;2024-03-25T01:20:03;98569.59;;;9.53;59.25
78229;BME280;74448;49.082;9.152;2024-03-25T01:22:32;98573.63;;;9.57;59.19
78229;BME280;74448;49.082;9.152;2024-03-25T01:24:57;98581.44;;;9.58;59.51
78229;BME280;74448;49.082;9.152;2024-03-25T01:27:23;98572.13;;;9.54;58.99
78229;BME280;74448;49.082;9.152;2024-03-25T01:29:49;98585.16;;;9.56;59.12
78229;BME280;74448;49.082;9.152;2024-03-25T01:32:14;98585.16;;;9.56;59.17
78229;BME280;74448;49.082;9.152;2024-03-25T01:34:40;98584.47;;;9.54;59.10
78229;BME280;74448;49.082;9.152;2024-03-25T01:37:06;98588.78;;;9.55;59.36
78229;BME280;74448;49.082;9.152;2024-03-25T01:39:31;98576.94;;;9.49;59.37
78229;BME280;74448;49.082;9.152;2024-03-25T01:41:57;98586.38;;;9.52;59.22
78229;BME280;74448;49.082;9.152;2024-03-25T01:44:23;98577.88;;;9.48;59.26
78229;BME280;74448;49.082;9.152;2024-03-25T01:46:48;98575.16;;;9.50;59.41
78229;BME280;74448;49.082;9.152;2024-03-25T01:49:14;98582.09;;;9.51;59.46
78229;BME280;74448;49.082;9.152;2024-03-25T01:51:41;98573.44;;;9.48;59.53
78229;BME280;74448;49.082;9.152;2024-03-25T01:54:07;98577.78;;;9.50;59.74
78229;BME280;74448;49.082;9.152;2024-03-25T01:56:34;98568.69;;;9.42;59.33
78229;BME280;74448;49.082;9.152;2024-03-25T01:59:02;98585.34;;;9.43;59.38
78229;BME280;74448;49.082;9.152;2024-03-25T02:01:28;98582.47;;;9.46;59.55
78229;BME280;74448;49.082;9.152;2024-03-25T02:03:55;98583.56;;;9.43;59.50
78229;BME280;74448;49.082;9.152;2024-03-25T02:06:21;98568.25;;;9.37;59.29
78229;BME280;74448;49.082;9.152;2024-03-25T02:08:47;98586.19;;;9.43;59.59
78229;BME280;74448;49.082;9.152;2024-03-25T02:11:13;98571.72;;;9.38;59.44
78229;BME280;74448;49.082;9.152;2024-03-25T02:13:39;98578.41;;;9.42;59.49
78229;BME280;74448;49.082;9.152;2024-03-25T02:16:06;98579.63;;;9.38;59.69
78229;BME280;74448;49.082;9.152;2024-03-25T02:18:32;98582.88;;;9.41;59.72
78229;BME280;74448;49.082;9.152;2024-03-25T02:20:58;98580.34;;;9.40;59.67
78229;BME280;74448;49.082;9.152;2024-03-25T02:23:24;98576.03;;;9.39;59.71
78229;BME280;74448;49.082;9.152;2024-03-25T02:25:50;98579.63;;;9.38;59.76
78229;BME280;74448;49.082;9.152;2024-03-25T02:28:16;98561.97;;;9.29;59.70
78229;BME280;74448;49.082;9.152;2024-03-25T02:30:42;98577.97;;;9.37;59.83
78229;BME280;74448;49.082;9.152;2024-03-25T02:33:08;98572.81;;;9.35;59.63
78229;BME280;74448;49.082;9.152;2024-03-25T02:35:34;98571.97;;;9.35;59.74
78229;BME280;74448;49.082;9.152;2024-03-25T02:38:01;98572.13;;;9.33;59.83
78229;BME280;74448;49.082;9.152;2024-03-25T02:40:27;98578.38;;;9.32;59.63
78229;BME280;74448;49.082;9.152;2024-03-25T02:42:53;98583.63;;;9.32;59.73
78229;BME280;74448;49.082;9.152;2024-03-25T02:45:18;98583.75;;;9.31;59.27
78229;BME280;74448;49.082;9.152;2024-03-25T02:47:45;98585.56;;;9.30;59.75
78229;BME280;74448;49.082;9.152;2024-03-25T02:50:11;98580.28;;;9.30;59.78
78229;BME280;74448;49.082;9.152;2024-03-25T02:52:37;98589.16;;;9.29;60.00
78229;BME280;74448;49.082;9.152;2024-03-25T02:55:02;98581.34;;;9.28;59.97
78229;BME280;74448;49.082;9.152;2024-03-25T02:57:28;98586.63;;;9.28;59.83
78229;BME280;74448;49.082;9.152;2024-03-25T02:59:53;98584.13;;;9.26;59.63
78229;BME280;74448;49.082;9.152;2024-03-25T03:02:19;98579.69;;;9.27;60.04
78229;BME280;74448;49.082;9.152;2024-03-25T03:04:44;98586.06;;;9.24;59.86
78229;BME280;74448;49.082;9.152;2024-03-25T03:07:10;98588.56;;;9.26;60.05
78229;BME280;74448;49.082;9.152;2024-03-25T03:09:36;98584.38;;;9.23;60.16
78229;BME280;74448;49.082;9.152;2024-03-25T03:12:01;98554.03;;;9.08;59.89
78229;BME280;74448;49.082;9.152;2024-03-25T03:14:27;98583.69;;;9.21;60.29
78229;BME280;74448;49.082;9.152;2024-03-25T03:16:52;98580.06;;;9.22;60.30
78229;BME280;74448;49.082;9.152;2024-03-25T03:19:26;98572.41;;;9.19;60.05
78229;BME280;74448;49.082;9.152;2024-03-25T03:21:53;98568.63;;;9.12;59.88
78229;BME280;74448;49.082;9.152;2024-03-25T03:24:18;98572.41;;;9.19;60.25
78229;BME280;74448;49.082;9.152;2024-03-25T03:26:45;98569.19;;;9.15;60.23
78229;BME280;74448;49.082;9.152;2024-03-25T03:29:11;98575.03;;;9.19;60.13
78229;BME280;74448;49.082;9.152;2024-03-25T03:31:36;98572.41;;;9.19;60.30
78229;BME280;74448;49.082;9.152;2024-03-25T03:34:02;98571.47;;;9.20;60.45
78229;BME280;74448;49.082;9.152;2024-03-25T03:36:28;98570.59;;;9.19;60.22
78229;BME280;74448;49.082;9.152;2024-03-25T03:38:54;98573.38;;;9.18;60.04
78229;BME280;74448;49.082;9.152;2024-03-25T03:41:20;98564.78;;;9.16;60.26
78229;BME280;74448;49.082;9.152;2024-03-25T03:43:45;98556.16;;;9.14;60.22
78229;BME280;74448;49.082;9.152;2024-03-25T03:46:11;98557.13;;;9.13;60.42
78229;BME280;74448;49.082;9.152;2024-03-25T03:48:37;98562.25;;;9.14;60.33
78229;BME280;74448;49.082;9.152;2024-03-25T03:51:07;98560.44;;;9.15;60.50
78229;BME280;74448;49.082;9.152;2024-03-25T03:53:34;98568.50;;;9.13;60.45
78229;BME280;74448;49.082;9.152;2024-03-25T03:56:00;98567.66;;;9.13;60.86
78229;BME280;74448;49.082;9.152;2024-03-25T03:58:33;98568.63;;;9.12;60.46
78229;BME280;74448;49.082;9.152;2024-03-25T04:00:59;98573.91;;;9.12;60.40
78229;BME280;74448;49.082;9.152;2024-03-25T04:03:25;98579.28;;;9.10;60.55
78229;BME280;74448;49.082;9.152;2024-03-25T04:05:51;98574.97;;;9.09;60.43
78229;BME280;74448;49.082;9.152;2024-03-25T04:08:17;98577.63;;;9.09;60.40
78229;BME280;74448;49.082;9.152;2024-03-25T04:10:44;98574.16;;;9.09;60.58
78229;BME280;74448;49.082;9.152;2024-03-25T04:13:09;98583.84;;;9.08;60.52
78229;BME280;74448;49.082;9.152;2024-03-25T04:15:37;98592.84;;;9.06;60.68
78229;BME280;74448;49.082;9.152;2024-03-25T04:18:04;98589.25;;;9.07;60.57
78229;BME280;74448;49.082;9.152;2024-03-25T04:20:36;98592.25;;;9.02;60.65
78229;BME280;74448;49.082;9.152;2024-03-25T04:23:02;98592.84;;;9.06;60.68
78229;BME280;74448;49.082;9.152;2024-03-25T04:25:27;98588.53;;;9.05;60.79
78229;BME280;74448;49.082;9.152;2024-03-25T04:27:53;98579.81;;;9.04;60.49
78229;BME280;74448;49.082;9.152;2024-03-25T04:30:19;98586.88;;;9.04;60.77
78229;BME280;74448;49.082;9.152;2024-03-25T04:32:45;98586.97;;;9.02;60.77
78229;BME280;74448;49.082;9.152;2024-03-25T04:35:10;98577.28;;;9.03;60.79
78229;BME280;74448;49.082;9.152;2024-03-25T04:37:36;98553.16;;;8.86;60.75
78229;BME280;74448;49.082;9.152;2024-03-25T04:40:02;98570.47;;;9.00;60.66
78229;BME280;74448;49.082;9.152;2024-03-25T04:42:28;98573.94;;;9.01;60.81
78229;BME280;74448;49.082;9.152;2024-03-25T04:44:54;98568.22;;;8.95;60.84
78229;BME280;74448;49.082;9.152;2024-03-25T04:47:20;98577.53;;;9.00;60.88
78229;BME280;74448;49.082;9.152;2024-03-25T04:49:45;98575.84;;;8.98;60.87
78229;BME280;74448;49.082;9.152;2024-03-25T04:52:12;98572.38;;;8.98;60.99
78229;BME280;74448;49.082;9.152;2024-03-25T04:54:43;98584.72;;;8.97;60.97
78229;BME280;74448;49.082;9.152;2024-03-25T04:57:08;98581.25;;;8.97;60.91
78229;BME280;74448;49.082;9.152;2024-03-25T04:59:34;98578.75;;;8.95;60.86
78229;BME280;74448;49.082;9.152;2024-03-25T05:02:00;98575.78;;;8.89;61.00
78229;BME280;74448;49.082;9.152;2024-03-25T05:04:26;98585.84;;;8.95;61.03
78229;BME280;74448;49.082;9.152;2024-03-25T05:06:52;98591.94;;;8.95;60.97
78229;BME280;74448;49.082;9.152;2024-03-25T05:09:17;98595.50;;;8.94;60.81
78229;BME280;74448;49.082;9.152;2024-03-25T05:11:43;98593.00;;;8.93;60.93
78229;BME280;74448;49.082;9.152;2024-03-25T05:14:09;98584.28;;;8.92;60.84
78229;BME280;74448;49.082;9.152;2024-03-25T05:16:35;98591.34;;;8.92;60.83
78229;BME280;74448;49.082;9.152;2024-03-25T05:19:02;98595.78;;;8.91;60.84
78229;BME280;74448;49.082;9.152;2024-03-25T05:21:30;98587.97;;;8.90;61.10
78229;BME280;74448;49.082;9.152;2024-03-25T05:23:56;98584.19;;;8.83;61.05
78229;BME280;74448;49.082;9.152;2024-03-25T05:26:21;98592.41;;;8.89;60.89
78229;BME280;74448;49.082;9.152;2024-03-25T05:28:52;98602.97;;;8.89;61.05
78229;BME280;74448;49.082;9.152;2024-03-25T05:31:18;98605.72;;;8.88;61.17
78229;BME280;74448;49.082;9.152;2024-03-25T05:33:43;98604.06;;;8.87;61.00
78229;BME280;74448;49.082;9.152;2024-03-25T05:36:09;98605.97;;;8.85;61.05
78229;BME280;74448;49.082;9.152;2024-03-25T05:38:35;98605.88;;;8.86;60.94
78229;BME280;74448;49.082;9.152;2024-03-25T05:41:00;98606.81;;;8.85;60.94
78229;BME280;74448;49.082;9.152;2024-03-25T05:43:26;98609.56;;;8.84;61.22
78229;BME280;74448;49.082;9.152;2024-03-25T05:45:52;98608.97;;;8.80;60.90
78229;BME280;74448;49.082;9.152;2024-03-25T05:48:21;98612.34;;;8.82;61.17
78229;BME280;74448;49.082;9.152;2024-03-25T05:50:57;98619.53;;;8.80;61.13
78229;BME280;74448;49.082;9.152;2024-03-25T05:53:23;98610.66;;;8.81;61.15
78229;BME280;74448;49.082;9.152;2024-03-25T05:55:48;98614.38;;;8.79;61.12
78229;BME280;74448;49.082;9.152;2024-03-25T05:58:14;98613.41;;;8.80;61.31
78229;BME280;74448;49.082;9.152;2024-03-25T06:00:39;98622.28;;;8.79;61.35
78229;BME280;74448;49.082;9.152;2024-03-25T06:03:05;98621.47;;;8.78;61.11
78229;BME280;74448;49.082;9.152;2024-03-25T06:05:30;98620.59;;;8.78;61.12
78229;BME280;74448;49.082;9.152;2024-03-25T06:07:56;98612.81;;;8.76;61.09
78229;BME280;74448;49.082;9.152;2024-03-25T06:10:21;98609.72;;;8.71;61.41
78229;BME280;74448;49.082;9.152;2024-03-25T06:12:47;98619.06;;;8.75;61.29
78229;BME280;74448;49.082;9.152;2024-03-25T06:15:13;98616.53;;;8.73;61.34
78229;BME280;74448;49.082;9.152;2024-03-25T06:17:39;98620.03;;;8.74;61.22
78229;BME280;74448;49.082;9.152;2024-03-25T06:20:05;98624.44;;;8.73;61.28
78229;BME280;74448;49.082;9.152;2024-03-25T06:22:30;98626.22;;;8.73;61.37
78229;BME280;74448;49.082;9.152;2024-03-25T06:24:56;98637.59;;;8.73;61.60
78229;BME280;74448;49.082;9.152;2024-03-25T06:27:21;98625.91;;;8.66;61.27
78229;BME280;74448;49.082;9.152;2024-03-25T06:29:47;98635.09;;;8.72;61.40
78229;BME280;74448;49.082;9.152;2024-03-25T06:32:13;98638.84;;;8.69;61.35
78229;BME280;74448;49.082;9.152;2024-03-25T06:34:57;98630.94;;;8.69;61.34
78229;BME280;74448;49.082;9.152;2024-03-25T06:37:26;98637.28;;;8.67;61.28
78229;BME280;74448;49.082;9.152;2024-03-25T06:39:51;98616.44;;;8.53;61.24
78229;BME280;74448;49.082;9.152;2024-03-25T06:42:18;98639.09;;;8.66;61.45
78229;BME280;74448;49.082;9.152;2024-03-25T06:44:44;98637.41;;;8.65;61.61
78229;BME280;74448;49.082;9.152;2024-03-25T06:47:15;98630.56;;;8.63;61.57
78229;BME280;74448;49.082;9.152;2024-03-25T06:49:40;98633.22;;;8.63;61.58
78229;BME280;74448;49.082;9.152;2024-03-25T06:52:06;98631.53;;;8.62;61.69
78229;BME280;74448;49.082;9.152;2024-03-25T06:54:31;98610.84;;;8.46;61.53
78229;BME280;74448;49.082;9.152;2024-03-25T06:56:57;98633.44;;;8.60;61.50
78229;BME280;74448;49.082;9.152;2024-03-25T06:59:22;98642.31;;;8.59;61.41
78229;BME280;74448;49.082;9.152;2024-03-25T07:01:48;98641.47;;;8.58;61.29
78229;BME280;74448;49.082;9.152;2024-03-25T07:04:13;98628.41;;;8.57;61.74
78229;BME280;74448;49.082;9.152;2024-03-25T07:06:39;98629.28;;;8.57;61.57
78229;BME280;74448;49.082;9.152;2024-03-25T07:09:05;98642.56;;;8.56;61.66
78229;BME280;74448;49.082;9.152;2024-03-25T07:11:31;98645.19;;;8.56;61.31
78229;BME280;74448;49.082;9.152;2024-03-25T07:13:57;98647.00;;;8.55;61.53
78229;BME280;74448;49.082;9.152;2024-03-25T07:16:22;98643.66;;;8.53;62.38
78229;BME280;74448;49.082;9.152;2024-03-25T07:18:48;98636.94;;;8.49;61.40
78229;BME280;74448;49.082;9.152;2024-03-25T07:21:13;98647.22;;;8.52;61.54
78229;BME280;74448;49.082;9.152;2024-03-25T07:23:39;98653.31;;;8.53;61.73
78229;BME280;74448;49.082;9.152;2024-03-25T07:26:04;98652.50;;;8.52;61.71
78229;BME280;74448;49.082;9.152;2024-03-25T07:28:30;98648.91;;;8.53;61.76
78229;BME280;74448;49.082;9.152;2024-03-25T07:30:55;98648.06;;;8.53;61.66
78229;BME280;74448;49.082;9.152;2024-03-25T07:33:21;98647.34;;;8.51;61.63
78229;BME280;74448;49.082;9.152;2024-03-25T07:35:47;98640.41;;;8.50;61.63
78229;BME280;74448;49.082;9.152;2024-03-25T07:38:12;98640.41;;;8.50;61.70
78229;BME280;74448;49.082;9.152;2024-03-25T07:40:38;98642.31;;;8.47;61.61
78229;BME280;74448;49.082;9.152;2024-03-25T07:43:03;98651.91;;;8.48;61.80
78229;BME280;74448;49.082;9.152;2024-03-25T07:45:30;98644.94;;;8.47;61.83
78229;BME280;74448;49.082;9.152;2024-03-25T07:47:56;98643.28;;;8.46;61.50
78229;BME280;74448;49.082;9.152;2024-03-25T07:50:22;98632.75;;;8.46;61.76
78229;BME280;74448;49.082;9.152;2024-03-25T07:52:48;98632.75;;;8.46;61.83
78229;BME280;74448;49.082;9.152;2024-03-25T07:55:13;98628.31;;;8.47;62.09
78229;BME280;74448;49.082;9.152;2024-03-25T07:57:40;98628.44;;;8.45;61.69
78229;BME280;74448;49.082;9.152;2024-03-25T08:00:06;98634.69;;;8.44;61.87
78229;BME280;74448;49.082;9.152;2024-03-25T08:02:34;98641.84;;;8.42;61.79
78229;BME280;74448;49.082;9.152;2024-03-25T08:04:59;98644.47;;;8.42;61.63
78229;BME280;74448;49.082;9.152;2024-03-25T08:07:25;98629.16;;;8.36;61.83
78229;BME280;74448;49.082;9.152;2024-03-25T08:09:51;98641.84;;;8.42;61.96
78229;BME280;74448;49.082;9.152;2024-03-25T08:12:16;98637.41;;;8.43;61.65
78229;BME280;74448;49.082;9.152;2024-03-25T08:14:42;98626.53;;;8.36;61.88
78229;BME280;74448;49.082;9.152;2024-03-25T08:17:08;98643.53;;;8.43;61.86
78229;BME280;74448;49.082;9.152;2024-03-25T08:19:34;98642.69;;;8.43;61.73
78229;BME280;74448;49.082;9.152;2024-03-25T08:22:00;98638.50;;;8.40;62.06
78229;BME280;74448;49.082;9.152;2024-03-25T08:24:25;98636.59;;;8.42;61.87
78229;BME280;74448;49.082;9.152;2024-03-25T08:26:51;98623.88;;;8.36;62.09
78229;BME280;74448;49.082;9.152;2024-03-25T08:29:16;98626.88;;;8.43;62.05
78229;BME280;74448;49.082;9.152;2024-03-25T08:31:42;98606.97;;;8.28;61.99
78229;BME280;74448;49.082;9.152;2024-03-25T08:34:08;98624.38;;;8.41;61.92
78229;BME280;74448;49.082;9.152;2024-03-25T08:36:34;98627.97;;;8.40;61.82
78229;BME280;74448;49.082;9.152;2024-03-25T08:38:59;98614.91;;;8.39;62.22
78229;BME280;74448;49.082;9.152;2024-03-25T08:41:25;98613.84;;;8.41;61.95
78229;BME280;74448;49.082;9.152;2024-03-25T08:43:50;98626.19;;;8.41;62.22
78229;BME280;74448;49.082;9.152;2024-03-25T08:46:16;98618.28;;;8.41;62.03
78229;BME280;74448;49.082;9.152;2024-03-25T08:48:41;98624.38;;;8.41;61.94
78229;BME280;74448;49.082;9.152;2024-03-25T08:51:07;98618.38;;;8.39;61.98
78229;BME280;74448;49.082;9.152;2024-03-25T08:53:33;98616.59;;;8.40;61.81
78229;BME280;74448;49.082;9.152;2024-03-25T08:55:59;98615.66;;;8.41;61.88
78229;BME280;74448;49.082;9.152;2024-03-25T08:58:25;98621.84;;;8.40;61.55
78229;BME280;74448;49.082;9.152;2024-03-25T09:00:51;98621.75;;;8.41;62.13
78229;BME280;74448;49.082;9.152;2024-03-25T09:03:16;98600.41;;;8.33;61.78
78229;BME280;74448;49.082;9.152;2024-03-25T09:05:42;98612.19;;;8.40;62.20
78229;BME280;74448;49.082;9.152;2024-03-25T09:08:07;98608.44;;;8.43;62.06
78229;BME280;74448;49.082;9.152;2024-03-25T09:10:37;98597.56;;;8.36;61.91
78229;BME280;74448;49.082;9.152;2024-03-25T09:13:21;98598.75;;;8.43;62.08
78229;BME280;74448;49.082;9.152;2024-03-25T09:15:49;98606.66;;;8.43;61.90
78229;BME280;74448;49.082;9.152;2024-03-25T09:18:15;98595.28;;;8.43;61.63
78229;BME280;74448;49.082;9.152;2024-03-25T09:20:40;98583.44;;;8.37;62.08
78229;BME280;74448;49.082;9.152;2024-03-25T09:23:06;98587.63;;;8.40;61.77
78229;BME280;74448;49.082;9.152;2024-03-25T09:25:33;98586.69;;;8.41;62.05
78229;BME280;74448;49.082;9.152;2024-03-25T09:27:58;98588.59;;;8.39;62.09
78229;BME280;74448;49.082;9.152;2024-03-25T09:30:24;98588.34;;;8.42;61.89
78229;BME280;74448;49.082;9.152;2024-03-25T09:32:49;98587.50;;;8.41;62.15
78229;BME280;74448;49.082;9.152;2024-03-25T09:35:15;98583.09;;;8.42;61.89
78229;BME280;74448;49.082;9.152;2024-03-25T09:37:40;98588.22;;;8.43;61.84
78229;BME280;74448;49.082;9.152;2024-03-25T09:40:06;98573.38;;;8.42;61.85
78229;BME280;74448;49.082;9.152;2024-03-25T09:42:34;98570.88;;;8.41;62.02
78229;BME280;74448;49.082;9.152;2024-03-25T09:45:01;98560.59;;;8.38;61.97
78229;BME280;74448;49.082;9.152;2024-03-25T09:47:28;98552.31;;;8.42;61.95
78229;BME280;74448;49.082;9.152;2024-03-25T09:49:54;98552.19;;;8.44;61.89
78229;BME280;74448;49.082;9.152;2024-03-25T09:52:20;98543.44;;;8.43;61.71
78229;BME280;74448;49.082;9.152;2024-03-25T09:54:46;98536.50;;;8.42;62.25
78229;BME280;74448;49.082;9.152;2024-03-25T09:57:12;98522.53;;;8.42;62.12
78229;BME280;74448;49.082;9.152;2024-03-25T09:59:39;98535.69;;;8.42;61.82
78229;BME280;74448;49.082;9.152;2024-03-25T10:02:05;98535.31;;;8.46;61.83
78229;BME280;74448;49.082;9.152;2024-03-25T10:04:32;98526.00;;;8.42;61.99
78229;BME280;74448;49.082;9.152;2024-03-25T10:06:58;98522.97;;;8.47;61.83
78229;BME280;74448;49.082;9.152;2024-03-25T10:09:24;98523.81;;;8.47;61.96
78229;BME280;74448;49.082;9.152;2024-03-25T10:11:51;98530.88;;;8.47;61.95
78229;BME280;74448;49.082;9.152;2024-03-25T10:14:17;98530.78;;;8.48;61.83
78229;BME280;74448;49.082;9.152;2024-03-25T10:16:44;98514.09;;;8.48;61.89
78229;BME280;74448;49.082;9.152;2024-03-25T10:19:10;98509.94;;;8.45;61.66
78229;BME280;74448;49.082;9.152;2024-03-25T10:21:35;98514.97;;;8.48;61.80
78229;BME280;74448;49.082;9.152;2024-03-25T10:24:04;98498.19;;;8.50;61.87
78229;BME280;74448;49.082;9.152;2024-03-25T10:26:31;98488.16;;;8.43;61.77
78229;BME280;74448;49.082;9.152;2024-03-25T10:29:02;98500.56;;;8.53;61.84
78229;BME280;74448;49.082;9.152;2024-03-25T10:31:28;98499.72;;;8.52;61.75
78229;BME280;74448;49.082;9.152;2024-03-25T10:33:54;98495.28;;;8.53;61.66
78229;BME280;74448;49.082;9.152;2024-03-25T10:36:21;98484.31;;;8.47;61.71
78229;BME280;74448;49.082;9.152;2024-03-25T10:38:49;98483.63;;;8.45;61.82
78229;BME280;74448;49.082;9.152;2024-03-25T10:41:17;98487.41;;;8.53;61.67
78229;BME280;74448;49.082;9.152;2024-03-25T10:43:47;98486.47;;;8.54;61.93
78229;BME280;74448;49.082;9.152;2024-03-25T10:46:18;98475.78;;;8.55;61.96
78229;BME280;74448;49.082;9.152;2024-03-25T10:48:54;98472.31;;;8.55;61.77
78229;BME280;74448;49.082;9.152;2024-03-25T10:51:22;98477.44;;;8.56;61.64
78229;BME280;74448;49.082;9.152;2024-03-25T10:53:51;98472.06;;;8.58;61.88
78229;BME280;74448;49.082;9.152;2024-03-25T10:56:21;98474.94;;;8.55;61.73
78229;BME280;74448;49.082;9.152;2024-03-25T10:58:50;98459.28;;;8.53;61.78
78229;BME280;74448;49.082;9.152;2024-03-25T11:01:17;98472.66;;;8.61;61.57
78229;BME280;74448;49.082;9.152;2024-03-25T11:03:45;98447.88;;;8.53;61.84
78229;BME280;74448;49.082;9.152;2024-03-25T11:06:11;98451.69;;;8.60;61.49
78229;BME280;74448;49.082;9.152;2024-03-25T11:08:37;98456.72;;;8.63;61.63
78229;BME280;74448;49.082;9.152;2024-03-25T11:11:05;98447.16;;;8.62;61.74
78229;BME280;74448;49.082;9.152;2024-03-25T11:13:31;98450.88;;;8.59;61.99
78229;BME280;74448;49.082;9.152;2024-03-25T11:15:57;98449.28;;;8.68;61.43
78229;BME280;74448;49.082;9.152;2024-03-25T11:18:25;98433.03;;;8.63;61.74
78229;BME280;74448;49.082;9.152;2024-03-25T11:21:04;98438.63;;;8.69;61.20
78229;BME280;74448;49.082;9.152;2024-03-25T11:23:44;98438.50;;;8.71;61.61
78229;BME280;74448;49.082;9.152;2024-03-25T11:26:20;98417.78;;;8.66;61.67
78229;BME280;74448;49.082;9.152;2024-03-25T11:28:46;98423.38;;;8.73;61.93
78229;BME280;74448;49.082;9.152;2024-03-25T11:31:12;98409.25;;;8.74;61.22
78229;BME280;74448;49.082;9.152;2024-03-25T11:33:41;98407.84;;;8.70;61.42
78229;BME280;74448;49.082;9.152;2024-03-25T11:36:07;98419.53;;;8.77;61.34
78229;BME280;74448;49.082;9.152;2024-03-25T11:38:33;98415.94;;;8.78;61.38
78229;BME280;74448;49.082;9.152;2024-03-25T11:41:00;98408.72;;;8.80;61.30
78229;BME280;74448;49.082;9.152;2024-03-25T11:43:25;98400.69;;;8.82;61.22
78229;BME280;74448;49.082;9.152;2024-03-25T11:45:51;98395.41;;;8.82;61.04
78229;BME280;74448;49.082;9.152;2024-03-25T11:48:19;98386.44;;;8.84;61.19
78229;BME280;74448;49.082;9.152;2024-03-25T11:50:46;98387.97;;;8.87;61.13
78229;BME280;74448;49.082;9.152;2024-03-25T11:53:15;98384.38;;;8.88;61.30
78229;BME280;74448;49.082;9.152;2024-03-25T11:55:45;98373.00;;;8.87;61.11
78229;BME280;74448;49.082;9.152;2024-03-25T11:58:11;98363.88;;;8.91;61.16
78229;BME280;74448;49.082;9.152;2024-03-25T12:00:44;98361.09;;;8.93;61.10
78229;BME280;74448;49.082;9.152;2024-03-25T12:03:13;98360.00;;;8.95;61.02
78229;BME280;74448;49.082;9.152;2024-03-25T12:05:40;98356.41;;;8.96;60.90
78229;BME280;74448;49.082;9.152;2024-03-25T12:08:10;98350.88;;;9.00;61.02
78229;BME280;74448;49.082;9.152;2024-03-25T12:10:37;98340.19;;;9.01;61.01
78229;BME280;74448;49.082;9.152;2024-03-25T12:13:21;98344.50;;;9.02;60.84
78229;BME280;74448;49.082;9.152;2024-03-25T12:15:47;98340.63;;;9.06;61.05
78229;BME280;74448;49.082;9.152;2024-03-25T12:18:16;98342.19;;;9.09;60.94
78229;BME280;74448;49.082;9.152;2024-03-25T12:20:45;98322.91;;;9.08;61.04
78229;BME280;74448;49.082;9.152;2024-03-25T12:23:10;98325.13;;;9.13;60.92
78229;BME280;74448;49.082;9.152;2024-03-25T12:25:36;98320.53;;;9.15;61.22
78229;BME280;74448;49.082;9.152;2024-03-25T12:28:08;98312.94;;;9.12;61.30
78229;BME280;74448;49.082;9.152;2024-03-25T12:30:48;98318.47;;;9.18;61.66
78229;BME280;74448;49.082;9.152;2024-03-25T12:33:14;98320.72;;;9.23;61.56
78229;BME280;74448;49.082;9.152;2024-03-25T12:35:41;98314.34;;;9.26;61.72
78229;BME280;74448;49.082;9.152;2024-03-25T12:38:24;98304.50;;;9.28;61.45
78229;BME280;74448;49.082;9.152;2024-03-25T12:40:49;98300.75;;;9.30;61.39
78229;BME280;74448;49.082;9.152;2024-03-25T12:43:16;98295.22;;;9.33;61.28
78229;BME280;74448;49.082;9.152;2024-03-25T12:45:42;98295.50;;;9.30;60.90
78229;BME280;74448;49.082;9.152;2024-03-25T12:48:11;98291.34;;;9.37;61.07
78229;BME280;74448;49.082;9.152;2024-03-25T12:50:37;98266.06;;;9.35;61.09
78229;BME280;74448;49.082;9.152;2024-03-25T12:53:03;98267.72;;;9.36;60.96
78229;BME280;74448;49.082;9.152;2024-03-25T12:55:29;98271.09;;;9.47;60.44
78229;BME280;74448;49.082;9.152;2024-03-25T12:57:55;98255.53;;;9.44;60.66
78229;BME280;74448;49.082;9.152;2024-03-25T13:00:21;98252.50;;;9.49;60.78
78229;BME280;74448;49.082;9.152;2024-03-25T13:02:46;98257.38;;;9.54;60.76
78229;BME280;74448;49.082;9.152;2024-03-25T13:05:12;98252.50;;;9.59;60.79
78229;BME280;74448;49.082;9.152;2024-03-25T13:07:37;98249.72;;;9.60;60.29